sensor_id;sensor_type;location;lat;lon;timestamp;P1;durP1;ratioP1;P2;durP2;ratioP2
7665;SDS011;3875;46.562;4.898;2022-11-20T00:01:30;8.03;;;4.00;;
7665;SDS011;3875;46.562;4.898;2022-11-20T00:03:57;8.40;;;4.23;;
7665;SDS011;3875;46.562;4.898;2022-11-20T00:06:26;7.67;;;4.10;;
7665;SDS011;3875;46.562;4.898;2022-11-20T00:08:57;6.87;;;4.47;;
7665;SDS011;3875;46.562;4.898;2022-11-20T00:11:25;5.90;;;3.70;;
7665;SDS011;3875;46.562;4.898;2022-11-20T00:13:53;6.77;;;3.90;;
7665;SDS011;3875;46.562;4.898;2022-11-20T00:16:21;9.97;;;4.20;;
7665;SDS011;3875;46.562;4.898;2022-11-20T00:18:48;13.30;;;3.70;;
7665;SDS011;3875;46.562;4.898;2022-11-20T00:21:16;7.10;;;3.83;;
7665;SDS011;3875;46.562;4.898;2022-11-20T00:23:44;5.60;;;3.57;;
7665;SDS011;3875;46.562;4.898;2022-11-20T00:26:11;8.77;;;3.83;;
7665;SDS011;3875;46.562;4.898;2022-11-20T00:28:38;7.13;;;3.90;;
7665;SDS011;3875;46.562;4.898;2022-11-20T00:31:04;8.57;;;3.50;;
7665;SDS011;3875;46.562;4.898;2022-11-20T00:33:32;10.13;;;3.33;;
7665;SDS011;3875;46.562;4.898;2022-11-20T00:36:04;7.23;;;4.60;;
7665;SDS011;3875;46.562;4.898;2022-11-20T00:38:32;7.83;;;3.73;;
7665;SDS011;3875;46.562;4.898;2022-11-20T00:40:59;3.97;;;2.80;;
7665;SDS011;3875;46.562;4.898;2022-11-20T00:43:29;5.40;;;3.13;;
7665;SDS011;3875;46.562;4.898;2022-11-20T00:46:01;7.40;;;2.87;;
7665;SDS011;3875;46.562;4.898;2022-11-20T00:48:32;4.27;;;2.60;;
7665;SDS011;3875;46.562;4.898;2022-11-20T00:50:58;7.57;;;3.17;;
7665;SDS011;3875;46.562;4.898;2022-11-20T00:53:24;12.87;;;3.37;;
7665;SDS011;3875;46.562;4.898;2022-11-20T00:55:54;4.03;;;2.83;;
7665;SDS011;3875;46.562;4.898;2022-11-20T00:58:20;4.00;;;2.70;;
7665;SDS011;3875;46.562;4.898;2022-11-20T01:00:46;7.47;;;3.50;;
7665;SDS011;3875;46.562;4.898;2022-11-20T01:03:11;2.97;;;2.57;;
7665;SDS011;3875;46.562;4.898;2022-11-20T01:05:37;8.10;;;3.30;;
7665;SDS011;3875;46.562;4.898;2022-11-20T01:08:03;5.00;;;2.80;;
7665;SDS011;3875;46.562;4.898;2022-11-20T01:10:29;5.27;;;2.50;;
7665;SDS011;3875;46.562;4.898;2022-11-20T01:12:55;7.47;;;3.87;;
7665;SDS011;3875;46.562;4.898;2022-11-20T01:15:39;5.07;;;2.30;;
7665;SDS011;3875;46.562;4.898;2022-11-20T01:18:04;6.70;;;3.30;;
7665;SDS011;3875;46.562;4.898;2022-11-20T01:20:34;3.37;;;2.60;;
7665;SDS011;3875;46.562;4.898;2022-11-20T01:23:01;3.83;;;2.80;;
7665;SDS011;3875;46.562;4.898;2022-11-20T01:25:27;6.43;;;3.13;;
7665;SDS011;3875;46.562;4.898;2022-11-20T01:27:53;5.27;;;2.50;;
7665;SDS011;3875;46.562;4.898;2022-11-20T01:30:19;7.17;;;2.80;;
7665;SDS011;3875;46.562;4.898;2022-11-20T01:32:45;3.43;;;2.80;;
7665;SDS011;3875;46.562;4.898;2022-11-20T01:35:11;6.23;;;3.33;;
7665;SDS011;3875;46.562;4.898;2022-11-20T01:37:36;5.77;;;3.30;;
7665;SDS011;3875;46.562;4.898;2022-11-20T01:40:02;3.77;;;3.20;;
7665;SDS011;3875;46.562;4.898;2022-11-20T01:42:28;7.43;;;3.27;;
7665;SDS011;3875;46.562;4.898;2022-11-20T01:48:18;6.63;;;3.20;;
7665;SDS011;3875;46.562;4.898;2022-11-20T01:50:48;4.83;;;2.63;;
7665;SDS011;3875;46.562;4.898;2022-11-20T01:53:16;7.43;;;3.23;;
7665;SDS011;3875;46.562;4.898;2022-11-20T01:55:50;4.40;;;3.13;;
7665;SDS011;3875;46.562;4.898;2022-11-20T01:58:22;5.43;;;3.27;;
7665;SDS011;3875;46.562;4.898;2022-11-20T02:00:52;5.07;;;3.27;;
7665;SDS011;3875;46.562;4.898;2022-11-20T02:03:18;5.47;;;2.63;;
7665;SDS011;3875;46.562;4.898;2022-11-20T02:08:28;5.17;;;3.37;;
7665;SDS011;3875;46.562;4.898;2022-11-20T02:10:55;5.70;;;3.80;;
7665;SDS011;3875;46.562;4.898;2022-11-20T02:13:21;8.77;;;3.00;;
7665;SDS011;3875;46.562;4.898;2022-11-20T02:16:08;4.33;;;3.10;;
7665;SDS011;3875;46.562;4.898;2022-11-20T02:18:54;5.03;;;3.30;;
7665;SDS011;3875;46.562;4.898;2022-11-20T02:21:24;4.93;;;3.10;;
7665;SDS011;3875;46.562;4.898;2022-11-20T02:26:30;3.63;;;2.80;;
7665;SDS011;3875;46.562;4.898;2022-11-20T02:29:00;3.37;;;2.43;;
7665;SDS011;3875;46.562;4.898;2022-11-20T02:31:26;5.67;;;2.70;;
7665;SDS011;3875;46.562;4.898;2022-11-20T02:33:56;4.27;;;2.97;;
7665;SDS011;3875;46.562;4.898;2022-11-20T02:36:22;4.17;;;3.07;;
7665;SDS011;3875;46.562;4.898;2022-11-20T02:38:51;6.37;;;2.90;;
7665;SDS011;3875;46.562;4.898;2022-11-20T02:41:17;4.20;;;3.07;;
7665;SDS011;3875;46.562;4.898;2022-11-20T02:43:42;4.10;;;2.90;;
7665;SDS011;3875;46.562;4.898;2022-11-20T02:46:08;3.57;;;2.80;;
7665;SDS011;3875;46.562;4.898;2022-11-20T02:48:34;7.90;;;3.03;;
7665;SDS011;3875;46.562;4.898;2022-11-20T02:51:00;5.70;;;3.20;;
7665;SDS011;3875;46.562;4.898;2022-11-20T02:53:25;7.70;;;2.77;;
7665;SDS011;3875;46.562;4.898;2022-11-20T02:55:51;3.60;;;2.50;;
7665;SDS011;3875;46.562;4.898;2022-11-20T02:58:17;7.13;;;3.30;;
7665;SDS011;3875;46.562;4.898;2022-11-20T03:00:43;3.23;;;2.53;;
7665;SDS011;3875;46.562;4.898;2022-11-20T03:03:08;4.97;;;2.50;;
7665;SDS011;3875;46.562;4.898;2022-11-20T03:05:34;4.37;;;3.20;;
7665;SDS011;3875;46.562;4.898;2022-11-20T03:08:00;4.93;;;2.77;;
7665;SDS011;3875;46.562;4.898;2022-11-20T03:10:25;3.87;;;2.93;;
7665;SDS011;3875;46.562;4.898;2022-11-20T03:12:54;3.47;;;2.60;;
7665;SDS011;3875;46.562;4.898;2022-11-20T03:15:21;2.70;;;2.50;;
7665;SDS011;3875;46.562;4.898;2022-11-20T03:17:53;6.57;;;3.10;;
7665;SDS011;3875;46.562;4.898;2022-11-20T03:20:19;3.83;;;2.50;;
7665;SDS011;3875;46.562;4.898;2022-11-20T03:22:45;5.53;;;2.83;;
7665;SDS011;3875;46.562;4.898;2022-11-20T03:25:11;7.77;;;3.50;;
7665;SDS011;3875;46.562;4.898;2022-11-20T03:27:36;3.07;;;2.80;;
7665;SDS011;3875;46.562;4.898;2022-11-20T03:30:02;4.23;;;2.50;;
7665;SDS011;3875;46.562;4.898;2022-11-20T03:32:30;5.20;;;2.87;;
7665;SDS011;3875;46.562;4.898;2022-11-20T03:34:56;3.10;;;2.60;;
7665;SDS011;3875;46.562;4.898;2022-11-20T03:37:22;4.73;;;2.50;;
7665;SDS011;3875;46.562;4.898;2022-11-20T03:39:47;5.20;;;2.40;;
7665;SDS011;3875;46.562;4.898;2022-11-20T03:42:13;6.57;;;3.27;;
7665;SDS011;3875;46.562;4.898;2022-11-20T03:44:57;4.63;;;3.13;;
7665;SDS011;3875;46.562;4.898;2022-11-20T03:47:23;4.67;;;2.63;;
7665;SDS011;3875;46.562;4.898;2022-11-20T03:49:49;4.17;;;2.90;;
7665;SDS011;3875;46.562;4.898;2022-11-20T03:52:14;4.07;;;2.60;;
7665;SDS011;3875;46.562;4.898;2022-11-20T03:54:40;6.33;;;2.90;;
7665;SDS011;3875;46.562;4.898;2022-11-20T03:57:06;4.80;;;3.10;;
7665;SDS011;3875;46.562;4.898;2022-11-20T03:59:31;5.57;;;2.33;;
7665;SDS011;3875;46.562;4.898;2022-11-20T04:01:57;4.60;;;2.57;;
7665;SDS011;3875;46.562;4.898;2022-11-20T04:04:23;4.50;;;3.07;;
7665;SDS011;3875;46.562;4.898;2022-11-20T04:06:49;7.13;;;3.50;;
7665;SDS011;3875;46.562;4.898;2022-11-20T04:09:14;2.83;;;2.57;;
7665;SDS011;3875;46.562;4.898;2022-11-20T04:11:40;3.03;;;2.60;;
7665;SDS011;3875;46.562;4.898;2022-11-20T04:14:11;2.10;;;1.90;;
7665;SDS011;3875;46.562;4.898;2022-11-20T04:16:38;2.60;;;2.27;;
7665;SDS011;3875;46.562;4.898;2022-11-20T04:19:06;4.27;;;3.00;;
7665;SDS011;3875;46.562;4.898;2022-11-20T04:21:35;6.97;;;2.37;;
7665;SDS011;3875;46.562;4.898;2022-11-20T04:24:00;4.30;;;2.43;;
7665;SDS011;3875;46.562;4.898;2022-11-20T04:26:27;2.53;;;2.27;;
7665;SDS011;3875;46.562;4.898;2022-11-20T04:28:54;3.50;;;2.83;;
7665;SDS011;3875;46.562;4.898;2022-11-20T04:31:20;6.03;;;3.47;;
7665;SDS011;3875;46.562;4.898;2022-11-20T04:33:48;8.70;;;3.00;;
7665;SDS011;3875;46.562;4.898;2022-11-20T04:36:15;6.90;;;3.17;;
7665;SDS011;3875;46.562;4.898;2022-11-20T04:38:46;2.80;;;2.60;;
7665;SDS011;3875;46.562;4.898;2022-11-20T04:41:16;4.33;;;3.20;;
7665;SDS011;3875;46.562;4.898;2022-11-20T04:43:46;3.80;;;2.30;;
7665;SDS011;3875;46.562;4.898;2022-11-20T04:46:16;3.83;;;2.63;;
7665;SDS011;3875;46.562;4.898;2022-11-20T04:48:43;5.60;;;3.17;;
7665;SDS011;3875;46.562;4.898;2022-11-20T04:51:08;4.93;;;3.03;;
7665;SDS011;3875;46.562;4.898;2022-11-20T04:53:34;4.83;;;3.03;;
7665;SDS011;3875;46.562;4.898;2022-11-20T04:56:00;7.13;;;3.30;;
7665;SDS011;3875;46.562;4.898;2022-11-20T04:58:31;7.27;;;2.70;;
7665;SDS011;3875;46.562;4.898;2022-11-20T05:01:01;6.47;;;3.40;;
7665;SDS011;3875;46.562;4.898;2022-11-20T05:03:44;5.40;;;3.13;;
7665;SDS011;3875;46.562;4.898;2022-11-20T05:06:11;6.30;;;3.10;;
7665;SDS011;3875;46.562;4.898;2022-11-20T05:08:37;3.23;;;2.60;;
7665;SDS011;3875;46.562;4.898;2022-11-20T05:11:10;9.10;;;3.10;;
7665;SDS011;3875;46.562;4.898;2022-11-20T05:13:41;6.50;;;2.73;;
7665;SDS011;3875;46.562;4.898;2022-11-20T05:16:08;7.87;;;3.20;;
7665;SDS011;3875;46.562;4.898;2022-11-20T05:18:36;3.57;;;2.73;;
7665;SDS011;3875;46.562;4.898;2022-11-20T05:21:02;3.67;;;2.50;;
7665;SDS011;3875;46.562;4.898;2022-11-20T05:23:29;5.87;;;2.93;;
7665;SDS011;3875;46.562;4.898;2022-11-20T05:25:56;4.73;;;2.90;;
7665;SDS011;3875;46.562;4.898;2022-11-20T05:28:22;4.70;;;2.77;;
7665;SDS011;3875;46.562;4.898;2022-11-20T05:30:49;4.87;;;2.73;;
7665;SDS011;3875;46.562;4.898;2022-11-20T05:33:15;5.20;;;2.80;;
7665;SDS011;3875;46.562;4.898;2022-11-20T05:35:41;6.47;;;3.27;;
7665;SDS011;3875;46.562;4.898;2022-11-20T05:38:07;5.73;;;2.97;;
7665;SDS011;3875;46.562;4.898;2022-11-20T05:40:33;3.43;;;3.07;;
7665;SDS011;3875;46.562;4.898;2022-11-20T05:42:59;6.00;;;3.67;;
7665;SDS011;3875;46.562;4.898;2022-11-20T05:45:25;7.03;;;3.20;;
7665;SDS011;3875;46.562;4.898;2022-11-20T05:47:51;4.47;;;2.30;;
7665;SDS011;3875;46.562;4.898;2022-11-20T05:50:16;2.87;;;2.20;;
7665;SDS011;3875;46.562;4.898;2022-11-20T05:52:42;6.47;;;2.60;;
7665;SDS011;3875;46.562;4.898;2022-11-20T05:55:08;3.33;;;2.70;;
7665;SDS011;3875;46.562;4.898;2022-11-20T05:57:34;4.13;;;2.50;;
7665;SDS011;3875;46.562;4.898;2022-11-20T06:00:00;3.17;;;2.60;;
7665;SDS011;3875;46.562;4.898;2022-11-20T06:02:26;5.97;;;2.70;;
7665;SDS011;3875;46.562;4.898;2022-11-20T06:04:52;3.30;;;2.27;;
7665;SDS011;3875;46.562;4.898;2022-11-20T06:07:17;5.93;;;3.20;;
7665;SDS011;3875;46.562;4.898;2022-11-20T06:09:43;5.73;;;3.07;;
7665;SDS011;3875;46.562;4.898;2022-11-20T06:12:09;4.70;;;2.90;;
7665;SDS011;3875;46.562;4.898;2022-11-20T06:14:34;7.40;;;3.50;;
7665;SDS011;3875;46.562;4.898;2022-11-20T06:17:00;4.83;;;3.00;;
7665;SDS011;3875;46.562;4.898;2022-11-20T06:19:26;8.70;;;3.50;;
7665;SDS011;3875;46.562;4.898;2022-11-20T06:21:51;10.80;;;4.03;;
7665;SDS011;3875;46.562;4.898;2022-11-20T06:24:17;8.83;;;3.30;;
7665;SDS011;3875;46.562;4.898;2022-11-20T06:26:43;9.33;;;2.90;;
7665;SDS011;3875;46.562;4.898;2022-11-20T06:29:09;4.83;;;2.97;;
7665;SDS011;3875;46.562;4.898;2022-11-20T06:31:35;8.77;;;3.80;;
7665;SDS011;3875;46.562;4.898;2022-11-20T06:34:03;5.10;;;3.17;;
7665;SDS011;3875;46.562;4.898;2022-11-20T06:36:30;7.00;;;3.33;;
7665;SDS011;3875;46.562;4.898;2022-11-20T06:38:56;5.00;;;3.43;;
7665;SDS011;3875;46.562;4.898;2022-11-20T06:41:21;6.93;;;2.97;;
7665;SDS011;3875;46.562;4.898;2022-11-20T06:43:48;8.90;;;3.40;;
7665;SDS011;3875;46.562;4.898;2022-11-20T06:46:15;9.30;;;3.73;;
7665;SDS011;3875;46.562;4.898;2022-11-20T06:48:42;5.50;;;3.00;;
7665;SDS011;3875;46.562;4.898;2022-11-20T06:51:08;3.13;;;2.83;;
7665;SDS011;3875;46.562;4.898;2022-11-20T06:53:35;5.27;;;3.13;;
7665;SDS011;3875;46.562;4.898;2022-11-20T06:56:01;4.07;;;2.90;;
7665;SDS011;3875;46.562;4.898;2022-11-20T06:58:28;5.60;;;3.20;;
7665;SDS011;3875;46.562;4.898;2022-11-20T07:00:58;5.10;;;2.80;;
7665;SDS011;3875;46.562;4.898;2022-11-20T07:03:25;4.67;;;2.80;;
7665;SDS011;3875;46.562;4.898;2022-11-20T07:05:51;5.40;;;2.97;;
7665;SDS011;3875;46.562;4.898;2022-11-20T07:08:19;5.43;;;3.03;;
7665;SDS011;3875;46.562;4.898;2022-11-20T07:10:45;7.03;;;3.40;;
7665;SDS011;3875;46.562;4.898;2022-11-20T07:13:10;10.50;;;3.47;;
7665;SDS011;3875;46.562;4.898;2022-11-20T07:15:36;8.60;;;3.23;;
7665;SDS011;3875;46.562;4.898;2022-11-20T07:18:02;4.13;;;3.07;;
7665;SDS011;3875;46.562;4.898;2022-11-20T07:20:28;9.63;;;3.33;;
7665;SDS011;3875;46.562;4.898;2022-11-20T07:22:57;8.80;;;3.43;;
7665;SDS011;3875;46.562;4.898;2022-11-20T07:25:24;8.40;;;3.40;;
7665;SDS011;3875;46.562;4.898;2022-11-20T07:27:50;9.87;;;3.90;;
7665;SDS011;3875;46.562;4.898;2022-11-20T07:30:16;9.47;;;3.10;;
7665;SDS011;3875;46.562;4.898;2022-11-20T07:32:42;10.00;;;3.13;;
7665;SDS011;3875;46.562;4.898;2022-11-20T07:35:12;3.97;;;2.90;;
7665;SDS011;3875;46.562;4.898;2022-11-20T07:37:37;5.40;;;2.90;;
7665;SDS011;3875;46.562;4.898;2022-11-20T07:40:03;13.77;;;3.00;;
7665;SDS011;3875;46.562;4.898;2022-11-20T07:42:29;6.43;;;2.70;;
7665;SDS011;3875;46.562;4.898;2022-11-20T07:44:55;3.07;;;2.67;;
7665;SDS011;3875;46.562;4.898;2022-11-20T07:47:21;5.53;;;2.57;;
7665;SDS011;3875;46.562;4.898;2022-11-20T07:49:46;5.50;;;3.50;;
7665;SDS011;3875;46.562;4.898;2022-11-20T07:52:12;8.23;;;3.17;;
7665;SDS011;3875;46.562;4.898;2022-11-20T07:54:38;7.57;;;4.10;;
7665;SDS011;3875;46.562;4.898;2022-11-20T07:57:03;5.10;;;3.13;;
7665;SDS011;3875;46.562;4.898;2022-11-20T07:59:29;7.77;;;4.00;;
7665;SDS011;3875;46.562;4.898;2022-11-20T08:01:55;7.97;;;3.60;;
7665;SDS011;3875;46.562;4.898;2022-11-20T08:04:21;9.77;;;2.93;;
7665;SDS011;3875;46.562;4.898;2022-11-20T08:06:46;5.60;;;2.77;;
7665;SDS011;3875;46.562;4.898;2022-11-20T08:09:12;9.57;;;3.40;;
7665;SDS011;3875;46.562;4.898;2022-11-20T08:11:38;8.47;;;2.50;;
7665;SDS011;3875;46.562;4.898;2022-11-20T08:14:22;6.87;;;2.90;;
7665;SDS011;3875;46.562;4.898;2022-11-20T08:16:49;6.77;;;2.73;;
7665;SDS011;3875;46.562;4.898;2022-11-20T08:19:16;11.03;;;3.13;;
7665;SDS011;3875;46.562;4.898;2022-11-20T08:21:43;7.20;;;2.50;;
7665;SDS011;3875;46.562;4.898;2022-11-20T08:24:09;7.20;;;2.57;;
7665;SDS011;3875;46.562;4.898;2022-11-20T08:26:36;8.73;;;2.83;;
7665;SDS011;3875;46.562;4.898;2022-11-20T08:29:03;5.97;;;2.70;;
7665;SDS011;3875;46.562;4.898;2022-11-20T08:31:30;11.67;;;2.83;;
7665;SDS011;3875;46.562;4.898;2022-11-20T08:33:57;7.20;;;2.90;;
7665;SDS011;3875;46.562;4.898;2022-11-20T08:36:22;5.23;;;2.53;;
7665;SDS011;3875;46.562;4.898;2022-11-20T08:38:49;5.57;;;2.60;;
7665;SDS011;3875;46.562;4.898;2022-11-20T08:41:16;7.00;;;2.70;;
7665;SDS011;3875;46.562;4.898;2022-11-20T08:43:49;6.13;;;2.80;;
7665;SDS011;3875;46.562;4.898;2022-11-20T08:46:15;6.37;;;2.80;;
7665;SDS011;3875;46.562;4.898;2022-11-20T08:48:42;5.47;;;2.50;;
7665;SDS011;3875;46.562;4.898;2022-11-20T08:51:08;8.63;;;3.03;;
7665;SDS011;3875;46.562;4.898;2022-11-20T08:53:34;5.90;;;2.90;;
7665;SDS011;3875;46.562;4.898;2022-11-20T08:56:00;4.10;;;3.00;;
7665;SDS011;3875;46.562;4.898;2022-11-20T08:58:26;10.07;;;2.77;;
7665;SDS011;3875;46.562;4.898;2022-11-20T09:03:56;8.03;;;2.17;;
7665;SDS011;3875;46.562;4.898;2022-11-20T09:06:22;7.33;;;2.70;;
7665;SDS011;3875;46.562;4.898;2022-11-20T09:08:51;8.73;;;2.70;;
7665;SDS011;3875;46.562;4.898;2022-11-20T09:11:17;7.33;;;2.53;;
7665;SDS011;3875;46.562;4.898;2022-11-20T09:13:43;7.73;;;2.63;;
7665;SDS011;3875;46.562;4.898;2022-11-20T09:16:09;3.90;;;2.27;;
7665;SDS011;3875;46.562;4.898;2022-11-20T09:18:35;3.87;;;2.30;;
7665;SDS011;3875;46.562;4.898;2022-11-20T09:21:03;5.70;;;2.33;;
7665;SDS011;3875;46.562;4.898;2022-11-20T09:23:31;5.27;;;2.10;;
7665;SDS011;3875;46.562;4.898;2022-11-20T09:26:01;4.33;;;2.37;;
7665;SDS011;3875;46.562;4.898;2022-11-20T09:28:31;4.47;;;2.73;;
7665;SDS011;3875;46.562;4.898;2022-11-20T09:30:57;2.63;;;2.43;;
7665;SDS011;3875;46.562;4.898;2022-11-20T09:33:23;4.83;;;2.13;;
7665;SDS011;3875;46.562;4.898;2022-11-20T09:35:49;3.60;;;2.10;;
7665;SDS011;3875;46.562;4.898;2022-11-20T09:38:15;4.67;;;1.90;;
7665;SDS011;3875;46.562;4.898;2022-11-20T09:40:44;4.20;;;2.07;;
7665;SDS011;3875;46.562;4.898;2022-11-20T09:43:17;2.97;;;1.80;;
7665;SDS011;3875;46.562;4.898;2022-11-20T09:46:05;7.87;;;2.00;;
7665;SDS011;3875;46.562;4.898;2022-11-20T09:51:39;4.45;;;2.38;;
7665;SDS011;3875;46.562;4.898;2022-11-20T09:56:39;4.13;;;1.80;;
7665;SDS011;3875;46.562;4.898;2022-11-20T09:59:08;4.07;;;1.80;;
7665;SDS011;3875;46.562;4.898;2022-11-20T10:01:47;3.77;;;1.70;;
7665;SDS011;3875;46.562;4.898;2022-11-20T10:04:15;4.53;;;2.13;;
7665;SDS011;3875;46.562;4.898;2022-11-20T10:07:17;7.07;;;2.35;;
7665;SDS011;3875;46.562;4.898;2022-11-20T10:09:49;4.17;;;1.77;;
7665;SDS011;3875;46.562;4.898;2022-11-20T10:12:20;2.87;;;1.80;;
7665;SDS011;3875;46.562;4.898;2022-11-20T10:25:33;6.53;;;1.97;;
7665;SDS011;3875;46.562;4.898;2022-11-20T10:31:08;5.93;;;2.00;;
7665;SDS011;3875;46.562;4.898;2022-11-20T10:33:42;5.07;;;1.60;;
7665;SDS011;3875;46.562;4.898;2022-11-20T10:36:14;4.20;;;1.80;;
7665;SDS011;3875;46.562;4.898;2022-11-20T10:38:47;2.77;;;1.70;;
7665;SDS011;3875;46.562;4.898;2022-11-20T10:41:30;4.53;;;1.43;;
7665;SDS011;3875;46.562;4.898;2022-11-20T10:44:11;4.60;;;1.40;;
7665;SDS011;3875;46.562;4.898;2022-11-20T10:47:05;4.60;;;1.80;;
7665;SDS011;3875;46.562;4.898;2022-11-20T10:49:43;8.67;;;2.00;;
7665;SDS011;3875;46.562;4.898;2022-11-20T10:55:04;4.43;;;1.30;;
7665;SDS011;3875;46.562;4.898;2022-11-20T11:00:21;3.00;;;1.53;;
7665;SDS011;3875;46.562;4.898;2022-11-20T11:02:48;5.07;;;1.50;;
7665;SDS011;3875;46.562;4.898;2022-11-20T11:08:02;3.83;;;1.50;;
7665;SDS011;3875;46.562;4.898;2022-11-20T11:10:39;5.67;;;1.77;;
7665;SDS011;3875;46.562;4.898;2022-11-20T11:13:22;20.27;;;1.60;;
7665;SDS011;3875;46.562;4.898;2022-11-20T11:15:52;4.97;;;1.70;;
7665;SDS011;3875;46.562;4.898;2022-11-20T11:18:31;4.63;;;1.40;;
7665;SDS011;3875;46.562;4.898;2022-11-20T11:20:59;6.03;;;1.53;;
7665;SDS011;3875;46.562;4.898;2022-11-20T11:26:04;3.25;;;1.67;;
7665;SDS011;3875;46.562;4.898;2022-11-20T11:28:31;3.13;;;1.80;;
7665;SDS011;3875;46.562;4.898;2022-11-20T11:30:58;6.00;;;1.83;;
7665;SDS011;3875;46.562;4.898;2022-11-20T11:33:28;6.07;;;1.83;;
7665;SDS011;3875;46.562;4.898;2022-11-20T11:35:55;3.80;;;1.50;;
7665;SDS011;3875;46.562;4.898;2022-11-20T11:38:29;5.50;;;1.63;;
7665;SDS011;3875;46.562;4.898;2022-11-20T11:40:56;4.37;;;1.73;;
7665;SDS011;3875;46.562;4.898;2022-11-20T11:43:23;3.27;;;1.23;;
7665;SDS011;3875;46.562;4.898;2022-11-20T11:46:29;2.20;;;1.43;;
7665;SDS011;3875;46.562;4.898;2022-11-20T11:51:54;2.80;;;1.37;;
7665;SDS011;3875;46.562;4.898;2022-11-20T11:54:43;3.73;;;1.40;;
7665;SDS011;3875;46.562;4.898;2022-11-20T12:00:12;7.57;;;1.87;;
7665;SDS011;3875;46.562;4.898;2022-11-20T12:05:24;3.77;;;1.70;;
7665;SDS011;3875;46.562;4.898;2022-11-20T12:10:57;4.43;;;1.57;;
7665;SDS011;3875;46.562;4.898;2022-11-20T12:16:28;1.60;;;1.50;;
7665;SDS011;3875;46.562;4.898;2022-11-20T12:19:00;7.33;;;2.20;;
7665;SDS011;3875;46.562;4.898;2022-11-20T12:30:16;6.60;;;2.03;;
7665;SDS011;3875;46.562;4.898;2022-11-20T12:35:52;3.83;;;1.90;;
7665;SDS011;3875;46.562;4.898;2022-11-20T12:44:31;5.20;;;1.90;;
7665;SDS011;3875;46.562;4.898;2022-11-20T12:52:51;6.20;;;2.53;;
7665;SDS011;3875;46.562;4.898;2022-11-20T12:57:58;5.97;;;2.70;;
7665;SDS011;3875;46.562;4.898;2022-11-20T13:00:47;3.97;;;2.43;;
7665;SDS011;3875;46.562;4.898;2022-11-20T13:03:36;4.20;;;2.17;;
7665;SDS011;3875;46.562;4.898;2022-11-20T13:08:55;4.03;;;2.03;;
7665;SDS011;3875;46.562;4.898;2022-11-20T13:16:59;2.70;;;1.70;;
7665;SDS011;3875;46.562;4.898;2022-11-20T13:19:26;2.90;;;1.57;;
7665;SDS011;3875;46.562;4.898;2022-11-20T13:21:53;5.20;;;1.60;;
7665;SDS011;3875;46.562;4.898;2022-11-20T13:26:45;5.23;;;1.83;;
7665;SDS011;3875;46.562;4.898;2022-11-20T13:29:16;3.30;;;1.83;;
7665;SDS011;3875;46.562;4.898;2022-11-20T13:31:44;3.80;;;1.50;;
7665;SDS011;3875;46.562;4.898;2022-11-20T13:34:12;2.30;;;1.63;;
7665;SDS011;3875;46.562;4.898;2022-11-20T13:36:52;3.97;;;1.70;;
7665;SDS011;3875;46.562;4.898;2022-11-20T13:39:27;3.57;;;1.70;;
7665;SDS011;3875;46.562;4.898;2022-11-20T13:44:46;3.77;;;1.90;;
7665;SDS011;3875;46.562;4.898;2022-11-20T13:47:20;4.20;;;1.57;;
7665;SDS011;3875;46.562;4.898;2022-11-20T13:49:47;3.30;;;1.70;;
7665;SDS011;3875;46.562;4.898;2022-11-20T14:00:53;3.57;;;1.87;;
7665;SDS011;3875;46.562;4.898;2022-11-20T14:03:23;4.33;;;1.57;;
7665;SDS011;3875;46.562;4.898;2022-11-20T14:05:57;1.97;;;1.60;;
7665;SDS011;3875;46.562;4.898;2022-11-20T14:08:31;3.67;;;1.70;;
7665;SDS011;3875;46.562;4.898;2022-11-20T14:11:04;3.17;;;1.80;;
7665;SDS011;3875;46.562;4.898;2022-11-20T14:13:31;3.73;;;1.87;;
7665;SDS011;3875;46.562;4.898;2022-11-20T14:15:57;3.73;;;1.80;;
7665;SDS011;3875;46.562;4.898;2022-11-20T14:18:25;2.83;;;1.87;;
7665;SDS011;3875;46.562;4.898;2022-11-20T14:20:52;4.30;;;1.67;;
7665;SDS011;3875;46.562;4.898;2022-11-20T14:23:25;3.97;;;1.77;;
7665;SDS011;3875;46.562;4.898;2022-11-20T14:25:53;3.23;;;1.67;;
7665;SDS011;3875;46.562;4.898;2022-11-20T14:28:29;2.03;;;1.37;;
7665;SDS011;3875;46.562;4.898;2022-11-20T14:30:56;3.33;;;1.70;;
7665;SDS011;3875;46.562;4.898;2022-11-20T14:33:23;5.00;;;1.73;;
7665;SDS011;3875;46.562;4.898;2022-11-20T14:35:52;5.30;;;1.73;;
7665;SDS011;3875;46.562;4.898;2022-11-20T14:38:24;3.50;;;1.63;;
7665;SDS011;3875;46.562;4.898;2022-11-20T14:40:51;3.27;;;1.67;;
7665;SDS011;3875;46.562;4.898;2022-11-20T14:43:25;3.13;;;1.53;;
7665;SDS011;3875;46.562;4.898;2022-11-20T14:46:07;2.47;;;1.87;;
7665;SDS011;3875;46.562;4.898;2022-11-20T14:48:38;4.10;;;1.53;;
7665;SDS011;3875;46.562;4.898;2022-11-20T14:51:22;3.57;;;1.40;;
7665;SDS011;3875;46.562;4.898;2022-11-20T14:56:55;2.03;;;1.60;;
7665;SDS011;3875;46.562;4.898;2022-11-20T14:59:23;2.23;;;1.70;;
7665;SDS011;3875;46.562;4.898;2022-11-20T15:04:56;3.40;;;1.87;;
7665;SDS011;3875;46.562;4.898;2022-11-20T15:07:25;5.30;;;1.80;;
7665;SDS011;3875;46.562;4.898;2022-11-20T15:12:32;6.63;;;1.80;;
7665;SDS011;3875;46.562;4.898;2022-11-20T15:15:04;7.73;;;2.00;;
7665;SDS011;3875;46.562;4.898;2022-11-20T15:17:31;3.83;;;1.60;;
7665;SDS011;3875;46.562;4.898;2022-11-20T15:19:57;7.37;;;1.93;;
7665;SDS011;3875;46.562;4.898;2022-11-20T15:22:26;3.33;;;1.73;;
7665;SDS011;3875;46.562;4.898;2022-11-20T15:24:51;3.13;;;1.60;;
7665;SDS011;3875;46.562;4.898;2022-11-20T15:27:17;5.50;;;2.00;;
7665;SDS011;3875;46.562;4.898;2022-11-20T15:29:43;3.77;;;1.80;;
7665;SDS011;3875;46.562;4.898;2022-11-20T15:32:09;4.17;;;2.03;;
7665;SDS011;3875;46.562;4.898;2022-11-20T15:34:35;5.57;;;3.50;;
7665;SDS011;3875;46.562;4.898;2022-11-20T15:37:00;5.43;;;2.13;;
7665;SDS011;3875;46.562;4.898;2022-11-20T15:39:26;2.47;;;1.70;;
7665;SDS011;3875;46.562;4.898;2022-11-20T15:41:51;3.53;;;1.73;;
7665;SDS011;3875;46.562;4.898;2022-11-20T15:44:17;3.17;;;2.00;;
7665;SDS011;3875;46.562;4.898;2022-11-20T15:46:43;4.00;;;1.83;;
7665;SDS011;3875;46.562;4.898;2022-11-20T15:49:12;6.13;;;2.27;;
7665;SDS011;3875;46.562;4.898;2022-11-20T15:51:41;5.67;;;2.17;;
7665;SDS011;3875;46.562;4.898;2022-11-20T15:54:15;2.77;;;1.83;;
7665;SDS011;3875;46.562;4.898;2022-11-20T15:56:44;2.83;;;2.23;;
7665;SDS011;3875;46.562;4.898;2022-11-20T15:59:11;6.40;;;2.63;;
7665;SDS011;3875;46.562;4.898;2022-11-20T16:01:39;6.07;;;2.27;;
7665;SDS011;3875;46.562;4.898;2022-11-20T16:04:09;2.87;;;2.10;;
7665;SDS011;3875;46.562;4.898;2022-11-20T16:06:38;5.23;;;2.73;;
7665;SDS011;3875;46.562;4.898;2022-11-20T16:09:04;7.37;;;3.10;;
7665;SDS011;3875;46.562;4.898;2022-11-20T16:11:30;3.33;;;2.03;;
7665;SDS011;3875;46.562;4.898;2022-11-20T16:13:56;5.43;;;2.00;;
7665;SDS011;3875;46.562;4.898;2022-11-20T16:16:40;3.80;;;1.60;;
7665;SDS011;3875;46.562;4.898;2022-11-20T16:19:11;3.17;;;1.90;;
7665;SDS011;3875;46.562;4.898;2022-11-20T16:21:38;6.17;;;2.60;;
7665;SDS011;3875;46.562;4.898;2022-11-20T16:24:06;3.97;;;2.00;;
7665;SDS011;3875;46.562;4.898;2022-11-20T16:26:34;2.90;;;2.13;;
7665;SDS011;3875;46.562;4.898;2022-11-20T16:29:00;4.30;;;2.30;;
7665;SDS011;3875;46.562;4.898;2022-11-20T16:31:27;8.13;;;3.10;;
7665;SDS011;3875;46.562;4.898;2022-11-20T16:33:54;3.53;;;2.80;;
7665;SDS011;3875;46.562;4.898;2022-11-20T16:36:22;3.50;;;2.37;;
7665;SDS011;3875;46.562;4.898;2022-11-20T16:38:55;5.83;;;2.67;;
7665;SDS011;3875;46.562;4.898;2022-11-20T16:41:24;5.87;;;4.33;;
7665;SDS011;3875;46.562;4.898;2022-11-20T16:43:51;3.57;;;2.60;;
7665;SDS011;3875;46.562;4.898;2022-11-20T16:46:27;5.90;;;2.43;;
7665;SDS011;3875;46.562;4.898;2022-11-20T16:49:02;5.23;;;2.23;;
7665;SDS011;3875;46.562;4.898;2022-11-20T16:51:30;5.43;;;2.27;;
7665;SDS011;3875;46.562;4.898;2022-11-20T16:54:00;5.47;;;2.73;;
7665;SDS011;3875;46.562;4.898;2022-11-20T16:56:27;6.63;;;2.60;;
7665;SDS011;3875;46.562;4.898;2022-11-20T17:09:21;8.20;;;2.47;;
7665;SDS011;3875;46.562;4.898;2022-11-20T17:12:07;3.77;;;2.23;;
7665;SDS011;3875;46.562;4.898;2022-11-20T17:14:47;4.90;;;2.10;;
7665;SDS011;3875;46.562;4.898;2022-11-20T17:17:13;2.87;;;2.07;;
7665;SDS011;3875;46.562;4.898;2022-11-20T17:23:11;5.43;;;2.10;;
7665;SDS011;3875;46.562;4.898;2022-11-20T17:25:37;12.13;;;2.80;;
7665;SDS011;3875;46.562;4.898;2022-11-20T17:28:02;3.47;;;1.53;;
7665;SDS011;3875;46.562;4.898;2022-11-20T17:30:29;4.50;;;1.80;;
7665;SDS011;3875;46.562;4.898;2022-11-20T17:32:54;2.37;;;1.60;;